Time;durP1;ratioP1;P1;durP2;ratioP2;P2;SDS_P1;SDS_P2;PMS_P1;PMS_P2;Temp;Humidity;BMP_temperature;BMP_pressure;BME280_temperature;BME280_humidity;BME280_pressure;Samples;Min_cycle;Max_cycle;Signal;HPM_P1;HPM_P2
2021/03/17 00:02:24;;;;;;;22.60;16.25;;;;;;;3.83;94.69;102635.00;5102588;28;20378;-79
2021/03/17 00:04:50;;;;;;;27.30;17.30;;;;;;;3.75;94.84;102637.84;5107667;28;20031;-79
2021/03/17 00:07:15;;;;;;;23.30;15.97;;;;;;;3.75;94.94;102640.38;5099838;28;20266;-79
2021/03/17 00:09:40;;;;;;;24.80;16.70;;;;;;;3.76;95.20;102636.19;5095087;28;20278;-80
2021/03/17 00:12:06;;;;;;;24.23;16.33;;;;;;;3.76;95.24;102638.72;5093131;28;20031;-79
2021/03/17 00:14:31;;;;;;;25.13;15.40;;;;;;;3.79;95.32;102638.06;5103697;28;20403;-79
2021/03/17 00:16:56;;;;;;;22.83;14.93;;;;;;;3.77;95.63;102640.50;5106245;28;20027;-80
2021/03/17 00:19:22;;;;;;;22.75;15.10;;;;;;;3.83;95.39;102637.56;5101787;28;20035;-80
2021/03/17 00:21:47;;;;;;;20.77;14.10;;;;;;;3.81;95.15;102628.91;5102012;28;20036;-80
2021/03/17 00:24:15;;;;;;;22.23;14.03;;;;;;;3.84;95.31;102627.50;5104264;28;20270;-79
2021/03/17 00:26:41;;;;;;;22.67;13.40;;;;;;;3.82;95.52;102630.69;5101897;28;20844;-81
2021/03/17 00:29:06;;;;;;;20.67;13.73;;;;;;;3.80;95.30;102639.84;5098851;28;20028;-80
2021/03/17 00:31:31;;;;;;;22.23;14.17;;;;;;;3.79;95.21;102638.97;5092872;28;20301;-79
2021/03/17 00:33:57;;;;;;;22.57;13.83;;;;;;;3.77;95.24;102639.63;5094698;28;20376;-79
2021/03/17 00:36:22;;;;;;;20.70;13.80;;;;;;;3.81;95.38;102641.63;5097620;28;20266;-79
2021/03/17 00:38:48;;;;;;;19.85;12.98;;;;;;;3.87;95.04;102655.72;5108656;28;20071;-79
2021/03/17 00:41:13;;;;;;;23.27;14.10;;;;;;;3.85;94.38;102658.91;5098172;28;20362;-80
2021/03/17 00:43:39;;;;;;;20.40;14.17;;;;;;;3.78;94.27;102656.63;5101209;28;20046;-79
2021/03/17 00:46:04;;;;;;;22.95;15.05;;;;;;;3.79;94.29;102663.50;5101533;28;20273;-79
2021/03/17 00:48:30;;;;;;;28.10;18.45;;;;;;;3.82;94.35;102668.81;5104680;28;20101;-78
2021/03/17 00:50:55;;;;;;;30.17;18.83;;;;;;;3.90;94.38;102673.78;5099173;28;20034;-80
2021/03/17 00:53:20;;;;;;;30.15;19.25;;;;;;;3.98;94.21;102669.28;5099031;28;20039;-77
2021/03/17 00:55:46;;;;;;;36.27;22.23;;;;;;;4.05;94.36;102674.09;5094482;28;20145;-78
2021/03/17 00:58:11;;;;;;;34.35;21.85;;;;;;;4.04;94.08;102672.31;5100769;28;20722;-80
2021/03/17 01:00:36;;;;;;;38.27;23.40;;;;;;;4.04;94.63;102682.50;5096672;28;20020;-80
2021/03/17 01:03:02;;;;;;;37.20;23.80;;;;;;;4.04;94.67;102682.50;5100039;28;20034;-79
2021/03/17 01:05:28;;;;;;;35.55;23.35;;;;;;;3.99;94.75;102684.66;5099750;28;20049;-79
2021/03/17 01:07:54;;;;;;;39.37;23.37;;;;;;;4.04;94.84;102685.03;5101654;28;20076;-79
2021/03/17 01:10:30;;;;;;;34.72;22.33;;;;;;;3.99;94.84;102684.66;5100122;28;20027;-79
2021/03/17 01:12:55;;;;;;;30.92;20.45;;;;;;;3.99;94.25;102683.78;5102559;28;20043;-80
2021/03/17 01:15:21;;;;;;;31.37;20.33;;;;;;;3.98;94.69;102689.63;5102130;28;20056;-80
2021/03/17 01:17:47;;;;;;;33.08;20.23;;;;;;;4.01;94.95;102693.31;5103311;28;20023;-79
2021/03/17 01:20:13;;;;;;;27.70;17.50;;;;;;;3.98;94.10;102692.19;5100186;28;20028;-78
2021/03/17 01:22:39;;;;;;;;;;;;;;;3.99;94.47;102694.84;5098902;28;20048;-79
2021/03/17 01:25:10;;;;;;;21.37;14.10;;;;;;;4.02;94.44;102695.09;5098263;28;19951;-80
2021/03/17 01:27:36;;;;;;;22.37;14.13;;;;;;;4.02;93.82;102687.44;5096237;28;20095;-79
2021/03/17 01:30:03;;;;;;;21.33;13.77;;;;;;;4.02;93.71;102696.75;5101704;28;20523;-78
2021/03/17 01:32:28;;;;;;;22.60;14.00;;;;;;;4.03;94.02;102701.94;5097849;28;20058;-78
2021/03/17 01:34:53;;;;;;;21.35;13.73;;;;;;;4.03;94.11;102707.03;5108333;28;20027;-79
2021/03/17 01:37:19;;;;;;;22.67;14.63;;;;;;;4.02;93.60;102704.38;5100118;28;20020;-80
2021/03/17 01:39:44;;;;;;;23.47;14.93;;;;;;;4.09;94.09;102710.81;5099651;28;20278;-80
2021/03/17 01:42:10;;;;;;;21.00;13.10;;;;;;;4.12;93.96;102706.88;5096808;28;20308;-78
2021/03/17 01:44:35;;;;;;;20.20;13.75;;;;;;;4.13;93.43;102706.09;5099394;28;20289;-78
2021/03/17 01:47:00;;;;;;;18.73;12.60;;;;;;;4.07;93.31;102703.06;5103737;28;20028;-78
2021/03/17 01:49:25;;;;;;;20.92;12.73;;;;;;;4.12;93.73;102709.41;5102697;28;20269;-80
2021/03/17 01:51:51;;;;;;;20.60;12.13;;;;;;;4.10;93.62;102697.34;5099158;28;20032;-79
2021/03/17 01:54:16;;;;;;;20.50;11.60;;;;;;;4.06;93.65;102712.34;5097432;28;20289;-80
2021/03/17 01:56:42;;;;;;;18.00;10.77;;;;;;;4.13;93.29;102703.56;5099736;28;20016;-80
2021/03/17 01:59:07;;;;;;;18.40;12.15;;;;;;;4.10;93.31;102697.34;5105672;28;20031;-80
2021/03/17 02:01:33;;;;;;;18.23;11.65;;;;;;;4.16;92.75;102691.06;5099236;28;20019;-78
2021/03/17 02:03:58;;;;;;;19.67;11.23;;;;;;;4.16;93.21;102687.66;5099421;28;20026;-80
2021/03/17 02:06:23;;;;;;;16.00;11.07;;;;;;;4.25;92.97;102681.66;5096856;28;20296;-80
2021/03/17 02:08:48;;;;;;;16.70;11.00;;;;;;;4.17;92.88;102671.63;5097169;28;20020;-79
2021/03/17 02:11:14;;;;;;;15.73;9.60;;;;;;;4.18;93.50;102676.81;5106110;28;20061;-79
2021/03/17 02:13:54;;;;;;;17.00;10.13;;;;;;;4.18;93.29;102669.19;5101565;28;20837;-79
2021/03/17 02:16:28;;;;;;;14.57;10.10;;;;;;;4.17;93.19;102667.41;5103274;28;20103;-80
2021/03/17 02:19:02;;;;;;;14.23;9.23;;;;;;;4.17;93.43;102667.41;5099105;28;20023;-80
2021/03/17 02:21:59;;;;;;;16.57;10.53;;;;;;;4.13;93.32;102662.84;5104351;28;20392;-80
2021/03/17 02:24:46;;;;;;;15.40;9.50;;;;;;;4.21;92.71;102656.72;5103016;28;20028;-80
2021/03/17 02:27:42;;;;;;;17.30;8.80;;;;;;;4.23;92.38;102665.38;5105937;28;20031;-79
2021/03/17 02:30:45;;;;;;;13.53;7.70;;;;;;;4.24;92.27;102667.16;5103386;28;20082;-79
2021/03/17 02:33:38;;;;;;;17.60;9.77;;;;;;;4.25;92.45;102671.47;5102203;28;20024;-80
2021/03/17 02:36:15;;;;;;;16.37;8.70;;;;;;;4.23;92.21;102656.88;5103662;28;20027;-79
2021/03/17 02:38:47;;;;;;;13.30;8.65;;;;;;;4.21;92.40;102659.25;5099475;28;20055;-77
2021/03/17 02:41:20;;;;;;;15.57;8.30;;;;;;;4.23;92.37;102654.31;5096155;28;20038;-80
2021/03/17 02:43:50;;;;;;;12.90;8.07;;;;;;;4.25;92.30;102652.78;5103149;28;20389;-80
2021/03/17 02:46:17;;;;;;;13.00;8.00;;;;;;;4.23;92.56;102660.28;5104402;28;20492;-80
2021/03/17 02:48:48;;;;;;;13.50;8.37;;;;;;;4.22;92.61;102655.94;5106234;28;20024;-80
2021/03/17 02:51:27;;;;;;;13.83;8.40;;;;;;;4.23;92.64;102662.84;5103822;28;20114;-80
2021/03/17 02:53:53;;;;;;;13.20;7.53;;;;;;;4.22;93.09;102653.41;5104719;28;20019;-80
2021/03/17 02:56:19;;;;;;;;;;;;;;;4.21;92.89;102646.53;5099828;28;20020;-80
2021/03/17 02:58:45;;;;;;;11.10;6.53;;;;;;;4.26;92.42;102647.81;5105719;28;19912;-80
2021/03/17 03:01:14;;;;;;;12.67;6.00;;;;;;;4.26;92.58;102655.44;5100841;28;20123;-79
2021/03/17 03:03:40;;;;;;;9.93;6.27;;;;;;;4.27;92.40;102652.13;5103572;28;20027;-80
2021/03/17 03:06:08;;;;;;;10.40;6.60;;;;;;;4.24;92.83;102656.09;5100503;28;20027;-78
2021/03/17 03:08:37;;;;;;;12.23;7.43;;;;;;;4.32;92.80;102657.56;5099504;28;20021;-80
2021/03/17 03:11:05;;;;;;;11.83;7.47;;;;;;;4.33;93.33;102659.34;5103503;28;20083;-79
2021/03/17 03:13:32;;;;;;;10.37;6.63;;;;;;;4.36;92.82;102650.28;5109054;28;20028;-79
2021/03/17 03:15:57;;;;;;;12.67;6.37;;;;;;;4.34;92.75;102659.47;5103960;28;20047;-78
2021/03/17 03:18:24;;;;;;;11.18;6.63;;;;;;;4.42;92.78;102652.41;5108503;28;20052;-79
2021/03/17 03:20:54;;;;;;;13.23;6.63;;;;;;;4.44;92.57;102652.53;5106935;28;20020;-79
2021/03/17 03:23:22;;;;;;;9.33;5.50;;;;;;;4.43;92.95;102655.84;5105264;28;20043;-78
2021/03/17 03:25:50;;;;;;;12.20;6.27;;;;;;;4.43;92.77;102650.75;5103719;28;20678;-80
2021/03/17 03:28:17;;;;;;;10.57;5.07;;;;;;;4.41;92.84;102648.09;5105529;28;20031;-78
2021/03/17 03:30:45;;;;;;;8.83;5.23;;;;;;;4.48;93.02;102647.78;5102233;28;20237;-80
2021/03/17 03:33:11;;;;;;;10.47;5.00;;;;;;;4.48;92.83;102642.69;5100986;28;20024;-79
2021/03/17 03:35:37;;;;;;;7.88;4.25;;;;;;;4.45;92.73;102646.66;5105202;28;20036;-80
2021/03/17 03:38:11;;;;;;;9.23;4.28;;;;;;;4.45;93.03;102647.56;5097784;28;20030;-77
2021/03/17 03:40:38;;;;;;;8.73;3.67;;;;;;;4.45;93.16;102647.56;5103493;27;20024;-80
2021/03/17 03:43:05;;;;;;;7.33;4.17;;;;;;;4.42;93.38;102641.34;5102678;28;20450;-79
2021/03/17 03:45:30;;;;;;;10.90;4.53;;;;;;;4.44;94.06;102635.59;5098024;28;20051;-78
2021/03/17 03:47:56;;;;;;;7.93;4.95;;;;;;;4.50;93.86;102640.28;5103545;28;20020;-80
2021/03/17 03:50:24;;;;;;;11.07;4.30;;;;;;;4.46;93.47;102646.78;5107055;28;20560;-79
2021/03/17 03:53:24;;;;;;;14.83;4.60;;;;;;;4.49;93.59;102646.13;5104737;28;20031;-79
2021/03/17 03:56:13;;;;;;;5.27;3.33;;;;;;;4.46;93.63;102643.34;5104885;28;20111;-79
2021/03/17 03:58:44;;;;;;;7.53;3.93;;;;;;;4.49;94.12;102643.59;5105353;28;20081;-80
2021/03/17 04:01:23;;;;;;;7.07;3.27;;;;;;;4.48;94.00;102632.53;5103455;28;20027;-79
2021/03/17 04:03:55;;;;;;;7.07;4.03;;;;;;;4.50;94.05;102636.06;5104033;28;20082;-79
2021/03/17 04:06:21;;;;;;;9.73;3.70;;;;;;;4.45;94.41;102637.38;5105094;28;20396;-79
2021/03/17 04:08:51;;;;;;;7.03;3.75;;;;;;;4.42;93.77;102647.31;5106420;28;20043;-78
2021/03/17 04:11:18;;;;;;;9.57;4.00;;;;;;;4.40;94.40;102650.53;5106471;28;20511;-80
2021/03/17 04:13:45;;;;;;;9.07;4.30;;;;;;;4.46;94.57;102659.50;5103368;28;20125;-78
2021/03/17 04:16:13;;;;;;;7.60;4.23;;;;;;;4.49;94.79;102658.84;5100086;28;20020;-79
2021/03/17 04:18:50;;;;;;;5.90;3.80;;;;;;;4.56;94.62;102668.75;5099041;28;20043;-80
2021/03/17 04:21:31;;;;;;;7.63;3.80;;;;;;;4.59;94.35;102669.00;5103622;28;20019;-80
2021/03/17 04:24:01;;;;;;;10.47;4.07;;;;;;;4.53;94.54;102671.03;5102118;28;20065;-79
2021/03/17 04:26:29;;;;;;;4.80;3.47;;;;;;;4.60;94.39;102668.22;5101056;28;20072;-80
2021/03/17 04:28:55;;;;;;;9.00;3.47;;;;;;;4.61;94.33;102672.53;5097386;28;20504;-80
2021/03/17 04:31:22;;;;;;;6.63;2.70;;;;;;;4.65;94.66;102683.06;5105264;28;20028;-80
2021/03/17 04:33:48;;;;;;;7.13;2.53;;;;;;;4.62;94.68;102684.50;5099072;28;20015;-78
2021/03/17 04:36:14;;;;;;;;;;;;;;;4.66;94.26;102678.88;5105697;28;20480;-80
2021/03/17 04:38:40;;;;;;;4.40;1.83;;;;;;;4.68;94.37;102683.31;5103101;28;19916;-79
2021/03/17 04:41:06;;;;;;;3.53;1.73;;;;;;;4.72;94.00;102686.97;5101159;28;20069;-79
2021/03/17 04:43:35;;;;;;;4.90;2.03;;;;;;;4.67;94.15;102690.84;5104362;28;20047;-81
2021/03/17 04:46:01;;;;;;;4.73;2.00;;;;;;;4.76;94.38;102683.88;5098287;28;20481;-78
2021/03/17 04:48:27;;;;;;;;;;;;;;;4.76;94.30;102683.88;5103125;28;20103;-80
2021/03/17 04:50:53;;;;;;;7.97;2.30;;;;;;;4.77;94.10;102677.13;5100637;28;20344;-80
2021/03/17 04:53:19;;;;;;;6.07;2.45;;;;;;;4.79;94.51;102689.22;5101479;28;20028;-79
2021/03/17 04:55:44;;;;;;;7.18;2.55;;;;;;;4.79;94.45;102681.56;5097232;28;20550;-79
2021/03/17 04:58:12;;;;;;;8.25;2.78;;;;;;;4.75;94.52;102687.22;5099900;27;20665;-79
2021/03/17 05:00:40;;;;;;;4.57;2.50;;;;;;;4.72;94.60;102681.88;5103832;28;20114;-79
2021/03/17 05:03:09;;;;;;;8.77;2.67;;;;;;;4.73;94.75;102672.59;5102252;28;20016;-80
2021/03/17 05:05:38;;;;;;;7.10;2.63;;;;;;;4.82;94.84;102681.81;5104080;28;20024;-79
2021/03/17 05:08:06;;;;;;;7.37;2.43;;;;;;;4.83;94.64;102685.22;5102242;28;20016;-79
2021/03/17 05:10:32;;;;;;;8.67;2.63;;;;;;;4.79;94.43;102689.22;5099488;28;20107;-78
2021/03/17 05:12:58;;;;;;;4.63;2.17;;;;;;;4.75;94.67;102689.75;5098376;28;20027;-80
2021/03/17 05:15:24;;;;;;;8.90;2.53;;;;;;;4.81;94.82;102674.94;5102979;28;20043;-80
2021/03/17 05:17:50;;;;;;;6.05;1.95;;;;;;;4.87;94.55;102679.59;5102324;28;20052;-79
2021/03/17 05:20:19;;;;;;;6.33;2.37;;;;;;;4.79;94.23;102686.66;5102282;28;20058;-80
2021/03/17 05:22:47;;;;;;;9.37;2.47;;;;;;;4.79;94.27;102680.69;5102045;28;20041;-80
2021/03/17 05:25:14;;;;;;;7.67;2.50;;;;;;;4.81;94.16;102677.47;5105279;28;20047;-79
2021/03/17 05:27:41;;;;;;;6.67;2.17;;;;;;;4.76;94.36;102686.44;5102002;28;20027;-80
2021/03/17 05:30:08;;;;;;;4.90;2.30;;;;;;;4.78;94.73;102673.81;5104788;28;20015;-79
2021/03/17 05:32:35;;;;;;;6.70;2.60;;;;;;;4.77;94.68;102677.13;5102639;28;20031;-79
2021/03/17 05:35:05;;;;;;;9.93;2.70;;;;;;;4.71;94.78;102685.19;5103041;28;20081;-79
2021/03/17 05:37:31;;;;;;;10.50;3.30;;;;;;;4.76;94.75;102685.53;5093563;28;20447;-80
2021/03/17 05:39:58;;;;;;;7.28;2.58;;;;;;;4.79;94.76;102676.47;5105781;28;20083;-80
2021/03/17 05:42:24;;;;;;;;;;;;;;;4.73;94.83;102681.09;5100214;28;20028;-79
2021/03/17 05:44:51;;;;;;;11.77;3.00;;;;;;;4.68;94.78;102672.25;5101653;28;20366;-80
2021/03/17 05:47:18;;;;;;;9.40;2.73;;;;;;;4.66;94.36;102677.22;5097473;28;20050;-80
2021/03/17 05:49:44;;;;;;;9.30;1.83;;;;;;;4.65;94.29;102674.56;5099431;28;21411;-80
2021/03/17 05:52:09;;;;;;;4.05;1.77;;;;;;;4.64;93.90;102670.22;5101474;28;20034;-78
2021/03/17 05:54:35;;;;;;;4.07;1.63;;;;;;;4.72;93.17;102668.25;5103995;28;20098;-79
2021/03/17 05:57:02;;;;;;;8.20;1.77;;;;;;;4.74;93.00;102669.28;5102771;28;20285;-80
2021/03/17 05:59:30;;;;;;;4.97;2.00;;;;;;;4.68;93.62;102667.16;5103439;28;20498;-79
2021/03/17 06:01:57;;;;;;;6.23;1.53;;;;;;;4.76;93.40;102660.09;5099763;28;20016;-80
2021/03/17 06:04:25;;;;;;;5.30;1.40;;;;;;;4.78;92.57;102672.16;5104758;28;20024;-77
2021/03/17 06:06:55;;;;;;;5.73;1.23;;;;;;;4.75;92.90;102679.56;5107818;28;20400;-79
2021/03/17 06:09:22;;;;;;;10.30;1.90;;;;;;;4.75;92.54;102686.31;5105579;28;20031;-80
2021/03/17 06:11:50;;;;;;;5.47;1.80;;;;;;;4.77;92.40;102690.75;5101483;28;20020;-80
2021/03/17 06:14:22;;;;;;;8.03;1.63;;;;;;;4.76;92.04;102698.28;5098271;28;20019;-79
2021/03/17 06:16:57;;;;;;;7.90;1.70;;;;;;;4.80;92.34;102697.75;5104359;28;20031;-80
2021/03/17 06:19:25;;;;;;;9.57;2.00;;;;;;;4.72;92.32;102696.28;5101756;28;20063;-80
2021/03/17 06:21:52;;;;;;;11.43;2.57;;;;;;;4.77;92.53;102711.13;5100278;28;20031;-80
2021/03/17 06:24:18;;;;;;;8.20;1.90;;;;;;;4.75;91.71;102712.66;5097923;28;20069;-80
2021/03/17 06:26:43;;;;;;;9.98;2.28;;;;;;;4.69;92.33;102704.56;5101747;28;20019;-80
2021/03/17 06:29:09;;;;;;;4.63;2.15;;;;;;;4.69;92.49;102705.44;5100899;28;20056;-80
2021/03/17 06:31:35;;;;;;;9.85;2.45;;;;;;;4.75;92.38;102710.13;5098277;28;20034;-79
2021/03/17 06:34:00;;;;;;;6.78;2.53;;;;;;;4.74;92.51;102717.63;5102722;28;20028;-80
2021/03/17 06:36:26;;;;;;;6.07;3.05;;;;;;;4.70;92.81;102701.25;5104022;28;20511;-79
2021/03/17 06:39:05;;;;;;;8.80;3.03;;;;;;;4.76;92.62;102695.72;5105742;28;20024;-81
2021/03/17 06:41:50;;;;;;;7.57;3.20;;;;;;;4.80;92.19;102682.47;5099509;28;20024;-78
2021/03/17 06:44:26;;;;;;;7.43;2.90;;;;;;;4.90;92.12;102687.50;5097046;28;20084;-81
2021/03/17 06:47:10;;;;;;;12.88;3.90;;;;;;;5.03;92.07;102689.31;5100057;28;20431;-80
2021/03/17 06:49:37;;;;;;;7.63;3.40;;;;;;;5.00;91.91;102692.50;5097580;28;20027;-81
2021/03/17 06:52:28;;;;;;;6.67;3.33;;;;;;;4.98;90.64;102697.50;5102343;28;20397;-79
2021/03/17 06:55:08;;;;;;;5.80;3.10;;;;;;;5.04;90.33;102688.53;5101521;28;20055;-83
2021/03/17 06:57:34;;;;;;;4.17;2.70;;;;;;;5.03;90.68;102696.94;5103295;28;20499;-80
2021/03/17 07:00:37;;;;;;;5.07;2.07;;;;;;;4.97;89.74;102716.09;5104251;28;20396;-80
2021/03/17 07:03:11;;;;;;;6.20;2.17;;;;;;;4.89;89.79;102719.72;5104539;28;20024;-80
2021/03/17 07:05:45;;;;;;;8.33;2.07;;;;;;;4.92;90.01;102730.13;5110613;28;20036;-82
2021/03/17 07:08:12;;;;;;;4.10;1.90;;;;;;;4.99;89.87;102732.38;5108292;28;20028;-81
2021/03/17 07:10:43;;;;;;;3.13;1.97;;;;;;;4.98;89.20;102735.69;5101394;28;20032;-80
2021/03/17 07:13:12;;;;;;;4.23;1.97;;;;;;;4.94;89.98;102736.22;5106484;28;20034;-80
2021/03/17 07:15:38;;;;;;;6.63;2.47;;;;;;;4.89;90.06;102739.19;5104556;28;20106;-80
2021/03/17 07:18:17;;;;;;;7.70;2.55;;;;;;;4.83;89.63;102737.03;5107057;28;20023;-80
2021/03/17 07:21:04;;;;;;;5.97;2.80;;;;;;;4.80;89.06;102733.38;5104888;28;20499;-80
2021/03/17 07:23:34;;;;;;;;;;;;;;;4.76;89.45;102737.34;5104668;28;20477;-80
2021/03/17 07:26:20;;;;;;;6.30;3.43;;;;;;;4.76;90.52;102751.75;5101856;28;20397;-81
2021/03/17 07:28:49;;;;;;;8.40;3.13;;;;;;;4.79;90.22;102763.03;5106157;28;20085;-79
2021/03/17 07:31:16;;;;;;;8.07;2.20;;;;;;;4.80;89.64;102759.72;5103338;28;20110;-80
2021/03/17 07:33:43;;;;;;;3.30;2.10;;;;;;;4.85;89.39;102768.59;5105081;28;20019;-80
2021/03/17 07:36:09;;;;;;;3.93;1.80;;;;;;;4.80;88.72;102775.00;5105294;28;20035;-78
2021/03/17 07:38:34;;;;;;;;;;;;;;;4.76;87.91;102775.53;5107072;28;20028;-79
2021/03/17 07:41:00;;;;;;;2.80;1.53;;;;;;;4.78;88.27;102783.28;5104179;28;20398;-77
2021/03/17 07:43:26;;;;;;;2.97;1.70;;;;;;;4.81;88.67;102770.81;5103159;28;20027;-78
2021/03/17 07:45:55;;;;;;;4.07;1.50;;;;;;;4.80;87.50;102777.56;5103996;28;20172;-78
2021/03/17 07:48:21;;;;;;;2.97;1.17;;;;;;;4.87;88.38;102777.25;5102163;28;20035;-79
2021/03/17 07:50:47;;;;;;;2.88;1.15;;;;;;;4.95;87.26;102762.59;5102101;28;20478;-79
2021/03/17 07:53:17;;;;;;;;;;;;;;;4.93;87.64;102774.31;5098111;28;20027;-78
2021/03/17 07:55:46;;;;;;;2.13;1.00;;;;;;;5.07;88.37;102778.81;5101423;28;20423;-79
2021/03/17 07:58:13;;;;;;;2.87;1.27;;;;;;;5.03;86.42;102791.19;5102327;28;20047;-80
2021/03/17 08:00:39;;;;;;;4.80;1.60;;;;;;;4.99;86.25;102788.41;5101137;28;20051;-78
2021/03/17 08:03:05;;;;;;;2.80;1.65;;;;;;;5.03;86.23;102788.63;5099561;28;20050;-78
2021/03/17 08:05:31;;;;;;;2.78;1.60;;;;;;;4.93;86.73;102798.13;5105772;28;20473;-79
2021/03/17 08:08:00;;;;;;;2.57;1.57;;;;;;;4.94;87.37;102805.00;5102001;28;20587;-78
2021/03/17 08:10:25;;;;;;;6.03;2.10;;;;;;;4.94;87.54;102804.09;5104963;28;20064;-78
2021/03/17 08:12:51;;;;;;;4.70;1.92;;;;;;;5.06;87.47;102793.97;5109166;28;20028;-78
2021/03/17 08:15:17;;;;;;;5.60;2.15;;;;;;;5.04;87.02;102808.25;5101334;28;20477;-78
2021/03/17 08:17:43;;;;;;;;;;;;;;;4.93;86.51;102809.97;5107349;28;20157;-78
2021/03/17 08:20:21;;;;;;;6.13;2.40;;;;;;;4.89;87.11;102811.41;5108035;28;19912;-78
2021/03/17 08:22:48;;;;;;;5.70;1.80;;;;;;;4.92;87.37;102801.44;5094545;28;20028;-79
2021/03/17 08:25:35;;;;;;;3.40;1.90;;;;;;;4.94;86.88;102799.91;5098720;28;20046;-80
2021/03/17 08:28:17;;;;;;;3.72;1.88;;;;;;;5.03;86.96;102804.81;5104449;28;20366;-78
2021/03/17 08:30:43;;;;;;;5.50;2.03;;;;;;;5.25;86.94;102804.81;5105440;28;20023;-77
2021/03/17 08:33:08;;;;;;;4.85;2.00;;;;;;;5.36;86.60;102803.06;5097470;28;20038;-78
2021/03/17 08:36:06;;;;;;;4.20;1.85;;;;;;;5.59;85.11;102810.81;5104581;28;20032;-78
2021/03/17 08:38:46;;;;;;;3.97;2.10;;;;;;;5.89;85.82;102817.31;5102275;28;20036;-77
2021/03/17 08:41:11;;;;;;;4.00;1.50;;;;;;;6.12;83.46;102812.25;5108965;28;20556;-79
2021/03/17 08:43:37;;;;;;;3.55;1.30;;;;;;;6.41;82.60;102800.69;5098983;28;20023;-78
2021/03/17 08:46:13;;;;;;;2.40;1.47;;;;;;;6.81;81.69;102799.31;5106033;28;20031;-77
2021/03/17 08:48:58;;;;;;;;;;;;;;;6.85;79.57;102801.31;5093125;28;20023;-76
2021/03/17 08:51:46;;;;;;;2.90;1.10;;;;;;;6.61;79.67;102805.56;5098448;28;20002;-77
2021/03/17 08:54:32;;;;;;;3.83;1.83;;;;;;;6.41;81.51;102811.81;5099384;28;20028;-82
2021/03/17 08:57:08;;;;;;;9.57;1.45;;;;;;;6.23;82.44;102813.03;5106663;28;20030;-77
2021/03/17 09:00:00;;;;;;;3.00;0.88;;;;;;;5.98;82.53;102802.69;5098649;28;20021;-78
2021/03/17 09:02:25;;;;;;;4.07;1.67;;;;;;;5.87;83.88;102801.00;5090202;28;20016;-76
2021/03/17 09:05:02;;;;;;;6.53;1.30;;;;;;;5.80;82.79;102802.19;5094559;28;20028;-76
2021/03/17 09:07:33;;;;;;;3.10;1.30;;;;;;;5.86;83.47;102802.66;5087244;28;20024;-77
2021/03/17 09:10:09;;;;;;;6.47;2.67;;;;;;;5.95;83.30;102796.50;5104233;28;20130;-77
2021/03/17 09:12:34;;;;;;;5.07;1.70;;;;;;;5.90;82.26;102809.81;5095150;28;20023;-76
2021/03/17 09:15:20;;;;;;;4.60;1.50;;;;;;;5.81;83.06;102818.38;5106792;28;20103;-76
2021/03/17 09:17:48;;;;;;;3.93;1.47;;;;;;;5.69;82.70;102820.91;5094222;28;20055;-77
2021/03/17 09:20:32;;;;;;;4.23;1.90;;;;;;;5.67;83.93;102819.91;5102280;28;20377;-77
2021/03/17 09:22:57;;;;;;;4.60;1.73;;;;;;;5.66;84.41;102828.31;5110918;28;20096;-77
2021/03/17 09:25:26;;;;;;;5.33;1.63;;;;;;;5.56;83.79;102830.97;5098681;28;20477;-77
2021/03/17 09:28:04;;;;;;;7.17;2.40;;;;;;;5.47;83.40;102830.25;5100176;28;20089;-76
2021/03/17 09:30:34;;;;;;;5.67;1.70;;;;;;;5.41;84.04;102835.78;5088653;28;20038;-76
2021/03/17 09:33:05;;;;;;;9.57;1.93;;;;;;;5.39;84.37;102834.78;5088675;28;20024;-76
2021/03/17 09:35:32;;;;;;;3.40;1.40;;;;;;;5.49;83.02;102832.13;5098546;28;20020;-77
2021/03/17 09:38:09;;;;;;;5.17;1.67;;;;;;;5.60;83.75;102827.88;5105192;28;20067;-77
2021/03/17 09:40:42;;;;;;;6.93;2.13;;;;;;;5.71;83.43;102829.56;5102893;28;20027;-76
2021/03/17 09:43:37;;;;;;;11.23;2.63;;;;;;;5.89;82.56;102820.78;5103109;28;20031;-76
2021/03/17 09:46:19;;;;;;;6.10;1.50;;;;;;;6.07;83.48;102828.88;5088824;28;20074;-76
2021/03/17 09:48:46;;;;;;;6.17;1.97;;;;;;;6.08;83.41;102830.66;5089028;28;20035;-76
2021/03/17 09:51:19;;;;;;;9.13;1.80;;;;;;;5.94;82.82;102826.22;5089306;28;20564;-76
2021/03/17 09:53:46;;;;;;;5.97;1.90;;;;;;;5.84;83.68;102808.41;5092955;28;20036;-77
2021/03/17 09:56:12;;;;;;;8.77;1.10;;;;;;;5.74;82.77;102804.28;5089963;28;20499;-76
2021/03/17 09:58:38;;;;;;;5.68;1.10;;;;;;;5.77;82.19;102801.97;5108901;28;20829;-76
2021/03/17 10:01:13;;;;;;;;;;;;;;;5.81;83.46;102810.72;5095930;28;20035;-76
2021/03/17 10:03:46;;;;;;;7.00;1.13;;;;;;;5.84;83.41;102828.81;5097697;28;19919;-77
2021/03/17 10:06:11;;;;;;;8.33;1.30;;;;;;;5.88;82.84;102816.41;5095311;28;20103;-77
2021/03/17 10:08:37;;;;;;;8.45;2.28;;;;;;;5.77;83.30;102826.56;5089844;28;20153;-77
2021/03/17 10:11:03;;;;;;;14.63;2.15;;;;;;;5.74;84.03;102823.78;5091861;28;20031;-77
2021/03/17 10:13:34;;;;;;;6.30;1.73;;;;;;;5.65;84.18;102818.03;5096220;28;20031;-75
2021/03/17 10:16:00;;;;;;;8.40;1.60;;;;;;;5.70;84.27;102804.84;5099712;28;20031;-76
2021/03/17 10:18:27;;;;;;;4.70;0.88;;;;;;;5.81;84.13;102814.16;5107799;28;20122;-78
2021/03/17 10:20:53;;;;;;;4.57;1.33;;;;;;;5.80;83.88;102814.03;5100515;28;20392;-75
2021/03/17 10:23:18;;;;;;;5.20;1.00;;;;;;;5.89;84.24;102813.13;5096197;28;20041;-76
2021/03/17 10:25:43;;;;;;;7.27;1.07;;;;;;;5.83;85.21;102811.72;5103135;28;20093;-77
2021/03/17 10:28:09;;;;;;;5.68;1.00;;;;;;;5.74;85.89;102808.50;5102609;28;20392;-75
2021/03/17 10:30:36;;;;;;;4.22;1.05;;;;;;;5.71;85.81;102801.50;5094031;28;20119;-76
2021/03/17 10:33:08;;;;;;;6.83;1.33;;;;;;;6.06;87.00;102808.34;5104281;28;20030;-76
2021/03/17 10:35:33;;;;;;;4.87;1.40;;;;;;;6.75;85.05;102793.78;5090598;28;20024;-77
2021/03/17 10:38:00;;;;;;;3.42;1.52;;;;;;;7.95;82.75;102794.31;5092170;28;20035;-77
2021/03/17 10:40:28;;;;;;;5.73;1.50;;;;;;;9.11;78.70;102799.16;5093190;28;20027;-76
2021/03/17 10:43:20;;;;;;;5.70;1.10;;;;;;;9.26;74.54;102800.06;5093086;28;20024;-77
2021/03/17 10:45:46;;;;;;;3.53;1.90;;;;;;;8.61;74.54;102793.47;5097530;28;20040;-76
2021/03/17 10:48:19;;;;;;;2.77;1.10;;;;;;;8.07;76.77;102790.00;5113739;28;20028;-76
2021/03/17 10:50:45;;;;;;;4.87;0.97;;;;;;;7.40;80.01;102805.97;5111516;28;20023;-77
2021/03/17 10:53:21;;;;;;;;;;;;;;;6.80;82.51;102794.97;5094796;28;20027;-76
2021/03/17 10:55:50;;;;;;;3.70;0.80;;;;;;;6.50;83.29;102797.16;5102228;28;20446;-77
2021/03/17 10:58:18;;;;;;;4.30;1.13;;;;;;;6.72;84.42;102797.00;5098793;28;20043;-77
2021/03/17 11:00:45;;;;;;;5.03;0.90;;;;;;;6.96;83.01;102800.38;5098110;28;20058;-76
2021/03/17 11:03:27;;;;;;;3.50;0.77;;;;;;;6.89;80.99;102799.88;5108306;28;20803;-77
2021/03/17 11:06:12;;;;;;;3.60;1.03;;;;;;;6.67;80.88;102795.78;5110719;28;20031;-76
2021/03/17 11:08:38;;;;;;;5.73;1.00;;;;;;;6.58;83.17;102800.25;5100759;28;20030;-76
2021/03/17 11:11:05;;;;;;;11.43;1.50;;;;;;;6.49;82.92;102787.69;5113084;28;20028;-77
2021/03/17 11:13:32;;;;;;;9.80;1.10;;;;;;;6.42;83.89;102797.38;5096027;28;20105;-77
2021/03/17 11:16:03;;;;;;;3.90;1.27;;;;;;;6.30;83.44;102799.06;5109564;28;20022;-78
2021/03/17 11:18:33;;;;;;;7.30;1.10;;;;;;;6.31;84.23;102804.28;5102705;28;20032;-78
2021/03/17 11:21:08;;;;;;;5.90;1.30;;;;;;;6.32;84.52;102805.16;5098585;28;20092;-78
2021/03/17 11:23:39;;;;;;;6.47;1.20;;;;;;;6.42;84.49;102789.72;5104344;28;20067;-78
2021/03/17 11:26:26;;;;;;;9.50;1.40;;;;;;;6.50;84.11;102806.47;5110733;27;20054;-79
2021/03/17 11:28:53;;;;;;;3.53;1.00;;;;;;;6.70;83.63;102796.00;5086549;28;20516;-76
2021/03/17 11:31:27;;;;;;;5.60;1.33;;;;;;;7.28;82.08;102800.06;5096950;28;20611;-77
2021/03/17 11:33:53;;;;;;;5.70;1.40;;;;;;;7.55;81.15;102795.03;5103023;28;20497;-77
2021/03/17 11:36:19;;;;;;;6.53;1.23;;;;;;;7.59;80.00;102791.91;5098339;28;20034;-77
2021/03/17 11:38:44;;;;;;;6.07;1.10;;;;;;;7.23;77.57;102796.28;5104131;28;20393;-76
2021/03/17 11:41:11;;;;;;;6.13;0.88;;;;;;;6.84;78.04;102804.66;5100838;28;20498;-79
2021/03/17 11:43:36;;;;;;;7.47;1.00;;;;;;;6.76;78.71;102810.88;5095698;28;20032;-77
2021/03/17 11:46:02;;;;;;;7.97;1.30;;;;;;;6.73;79.40;102803.00;5100454;28;20389;-78